This is the latest recevied weather packets stored in our database for station/object AD4WX-13. If no packets are shown the sender has not sent any weather packets the latest 10 day(s).
| Time | Temp. | Humidity | Pressure | Rain* | Wind** | Luminosity | Snow |
|---|---|---|---|---|---|---|---|
| 1777583346 | 17.78° C | 46% | 1013.5 hPa | 0 mm | - | 555 W/m² | - |
| 1777582022 | 17.78° C | 43% | 1013.6 hPa | 0 mm | - | 443 W/m² | - |
| 1777572901 | 18.33° C | 43% | 1014.8 hPa | 0 mm | - | 807 W/m² | - |
| 1777570419 | 17.78° C | 43% | 1015.1 hPa | 0 mm | - | 921 W/m² | - |
| 1777563164 | 16.11° C | 47% | 1015.4 hPa | 0 mm | - | 731 W/m² | - |
| 1777562499 | 16.11° C | 49% | 1015.4 hPa | 0 mm | - | 700 W/m² | - |
| 1777560612 | 15° C | 50% | 1015.3 hPa | 0 mm | - | 666 W/m² | - |
| 1777559304 | 15.56° C | 53% | 1015.3 hPa | 0 mm | - | 596 W/m² | - |
| 1777556837 | 15° C | 59% | 1015.3 hPa | 0 mm | - | 490 W/m² | - |
| 1777555548 | 14.44° C | 58% | 1015.4 hPa | 0 mm | - | 446 W/m² | - |
| 1777551301 | 10° C | 82% | 1015.2 hPa | 0 mm | - | 155 W/m² | - |
| 1777547563 | 8.89° C | 84% | 1014.2 hPa | 0 mm | - | 9 W/m² | - |
| 1777546910 | 9.44° C | 83% | 1014.3 hPa | 0 mm | - | 0 W/m² | - |
| 1777543704 | 11.11° C | 75% | 1013.9 hPa | 0 mm | - | 0 W/m² | - |
| 1777535050 | 11.67° C | 81% | 1012.6 hPa | 0 mm | - | 0 W/m² | - |
| 1777534358 | 12.22° C | 79% | 1012.7 hPa | 0 mm | - | 0 W/m² | - |
| 1777527631 | 13.89° C | 77% | 1013.2 hPa | 0 mm | - | 0 W/m² | - |
| 1777523331 | 15° C | 77% | 1013.4 hPa | 0 mm | - | 0 W/m² | - |
| 1777522673 | 15.56° C | 77% | 1013.2 hPa | 0 mm | - | 0 W/m² | - |
| 1777518406 | 15.56° C | 86% | 1013.2 hPa | 0 mm | - | 0 W/m² | - |
| 1777511073 | 16.11° C | 89% | 1011.3 hPa | 0 mm | - | 0 W/m² | - |
| 1777501965 | 20.56° C | 69% | 1010.7 hPa | 0 mm | - | 374 W/m² | - |
| 1777499489 | 19.44° C | 76% | 1010.9 hPa | 0 mm | - | 179 W/m² | - |
| 1777495799 | 20° C | 76% | 1011.5 hPa | 0 mm | - | 241 W/m² | - |
| 1777483555 | 18.89° C | 87% | 1012.6 hPa | 0 mm | - | 299 W/m² | - |
* Rain latest hour (hover to see other rain measurements)
** Current wind speed in m/s (hover to see current wind gust speed)